sensor_id;sensor_type;location;lat;lon;timestamp;P1;durP1;ratioP1;P2;durP2;ratioP2
17832;SDS011;9041;49.718;21.798;2023-04-21T00:00:50;8.30;;;3.72;;
17832;SDS011;9041;49.718;21.798;2023-04-21T00:03:18;8.63;;;3.65;;
17832;SDS011;9041;49.718;21.798;2023-04-21T00:05:46;7.43;;;3.70;;
17832;SDS011;9041;49.718;21.798;2023-04-21T00:08:13;10.18;;;3.58;;
17832;SDS011;9041;49.718;21.798;2023-04-21T00:10:39;8.55;;;3.95;;
17832;SDS011;9041;49.718;21.798;2023-04-21T00:13:06;9.75;;;3.58;;
17832;SDS011;9041;49.718;21.798;2023-04-21T00:15:34;10.65;;;4.03;;
17832;SDS011;9041;49.718;21.798;2023-04-21T00:18:01;7.85;;;3.60;;
17832;SDS011;9041;49.718;21.798;2023-04-21T00:20:29;12.13;;;3.40;;
17832;SDS011;9041;49.718;21.798;2023-04-21T00:22:57;8.95;;;3.70;;
17832;SDS011;9041;49.718;21.798;2023-04-21T00:25:24;9.43;;;3.33;;
17832;SDS011;9041;49.718;21.798;2023-04-21T00:27:52;9.98;;;4.65;;
17832;SDS011;9041;49.718;21.798;2023-04-21T00:30:19;7.90;;;3.72;;
17832;SDS011;9041;49.718;21.798;2023-04-21T00:32:47;10.35;;;3.80;;
17832;SDS011;9041;49.718;21.798;2023-04-21T00:35:14;11.70;;;3.72;;
17832;SDS011;9041;49.718;21.798;2023-04-21T00:37:40;6.97;;;3.80;;
17832;SDS011;9041;49.718;21.798;2023-04-21T00:40:08;9.93;;;3.45;;
17832;SDS011;9041;49.718;21.798;2023-04-21T00:42:35;12.30;;;3.95;;
17832;SDS011;9041;49.718;21.798;2023-04-21T00:45:02;12.60;;;3.72;;
17832;SDS011;9041;49.718;21.798;2023-04-21T00:47:29;9.00;;;4.10;;
17832;SDS011;9041;49.718;21.798;2023-04-21T00:49:57;8.27;;;3.70;;
17832;SDS011;9041;49.718;21.798;2023-04-21T00:52:25;7.30;;;3.80;;
17832;SDS011;9041;49.718;21.798;2023-04-21T00:54:52;9.93;;;4.13;;
17832;SDS011;9041;49.718;21.798;2023-04-21T00:57:19;9.15;;;3.75;;
17832;SDS011;9041;49.718;21.798;2023-04-21T00:59:46;11.63;;;3.80;;
17832;SDS011;9041;49.718;21.798;2023-04-21T01:02:14;12.07;;;4.22;;
17832;SDS011;9041;49.718;21.798;2023-04-21T01:04:41;8.85;;;4.25;;
17832;SDS011;9041;49.718;21.798;2023-04-21T01:07:11;9.82;;;3.92;;
17832;SDS011;9041;49.718;21.798;2023-04-21T01:09:38;7.28;;;3.97;;
17832;SDS011;9041;49.718;21.798;2023-04-21T01:12:05;11.13;;;4.10;;
17832;SDS011;9041;49.718;21.798;2023-04-21T01:14:34;9.43;;;3.90;;
17832;SDS011;9041;49.718;21.798;2023-04-21T01:17:01;8.32;;;4.13;;
17832;SDS011;9041;49.718;21.798;2023-04-21T01:19:29;11.68;;;3.97;;
17832;SDS011;9041;49.718;21.798;2023-04-21T01:21:59;9.32;;;4.80;;
17832;SDS011;9041;49.718;21.798;2023-04-21T01:24:34;13.02;;;4.07;;
17832;SDS011;9041;49.718;21.798;2023-04-21T01:27:01;11.90;;;4.35;;
17832;SDS011;9041;49.718;21.798;2023-04-21T01:29:31;9.70;;;4.35;;
17832;SDS011;9041;49.718;21.798;2023-04-21T01:32:02;7.22;;;4.15;;
17832;SDS011;9041;49.718;21.798;2023-04-21T01:34:30;7.40;;;4.07;;
17832;SDS011;9041;49.718;21.798;2023-04-21T01:36:57;10.35;;;3.90;;
17832;SDS011;9041;49.718;21.798;2023-04-21T01:39:25;9.27;;;3.67;;
17832;SDS011;9041;49.718;21.798;2023-04-21T01:41:52;9.13;;;4.13;;
17832;SDS011;9041;49.718;21.798;2023-04-21T01:44:22;9.65;;;4.03;;
17832;SDS011;9041;49.718;21.798;2023-04-21T01:46:50;14.60;;;3.80;;
17832;SDS011;9041;49.718;21.798;2023-04-21T01:49:16;14.02;;;3.47;;
17832;SDS011;9041;49.718;21.798;2023-04-21T01:51:43;10.65;;;3.85;;
17832;SDS011;9041;49.718;21.798;2023-04-21T01:54:10;7.03;;;3.65;;
17832;SDS011;9041;49.718;21.798;2023-04-21T01:56:39;10.40;;;4.13;;
17832;SDS011;9041;49.718;21.798;2023-04-21T01:59:05;10.52;;;4.22;;
17832;SDS011;9041;49.718;21.798;2023-04-21T02:01:32;8.30;;;4.20;;
17832;SDS011;9041;49.718;21.798;2023-04-21T02:04:00;7.72;;;4.10;;
17832;SDS011;9041;49.718;21.798;2023-04-21T02:06:27;10.73;;;4.03;;
17832;SDS011;9041;49.718;21.798;2023-04-21T02:08:54;11.10;;;4.72;;
17832;SDS011;9041;49.718;21.798;2023-04-21T02:11:21;9.05;;;3.85;;
17832;SDS011;9041;49.718;21.798;2023-04-21T02:13:50;11.27;;;3.85;;
17832;SDS011;9041;49.718;21.798;2023-04-21T02:16:17;7.32;;;3.90;;
17832;SDS011;9041;49.718;21.798;2023-04-21T02:18:44;8.68;;;4.75;;
17832;SDS011;9041;49.718;21.798;2023-04-21T02:21:11;13.55;;;4.65;;
17832;SDS011;9041;49.718;21.798;2023-04-21T02:23:38;14.98;;;4.32;;
17832;SDS011;9041;49.718;21.798;2023-04-21T02:26:05;12.32;;;4.13;;
17832;SDS011;9041;49.718;21.798;2023-04-21T02:28:32;8.43;;;4.03;;
17832;SDS011;9041;49.718;21.798;2023-04-21T02:31:00;11.87;;;3.87;;
17832;SDS011;9041;49.718;21.798;2023-04-21T02:33:27;8.67;;;4.27;;
17832;SDS011;9041;49.718;21.798;2023-04-21T02:35:54;12.20;;;4.00;;
17832;SDS011;9041;49.718;21.798;2023-04-21T02:38:21;11.57;;;4.07;;
17832;SDS011;9041;49.718;21.798;2023-04-21T02:40:48;12.82;;;3.97;;
17832;SDS011;9041;49.718;21.798;2023-04-21T02:43:15;13.97;;;4.60;;
17832;SDS011;9041;49.718;21.798;2023-04-21T02:45:42;10.43;;;4.90;;
17832;SDS011;9041;49.718;21.798;2023-04-21T02:48:11;12.57;;;4.77;;
17832;SDS011;9041;49.718;21.798;2023-04-21T02:50:41;7.70;;;3.90;;
17832;SDS011;9041;49.718;21.798;2023-04-21T02:53:08;12.43;;;4.20;;
17832;SDS011;9041;49.718;21.798;2023-04-21T02:55:35;11.40;;;4.00;;
17832;SDS011;9041;49.718;21.798;2023-04-21T02:58:02;12.70;;;4.23;;
17832;SDS011;9041;49.718;21.798;2023-04-21T03:00:28;10.40;;;4.07;;
17832;SDS011;9041;49.718;21.798;2023-04-21T03:02:55;11.87;;;4.10;;
17832;SDS011;9041;49.718;21.798;2023-04-21T03:05:24;9.07;;;4.13;;
17832;SDS011;9041;49.718;21.798;2023-04-21T03:07:51;11.37;;;4.10;;
17832;SDS011;9041;49.718;21.798;2023-04-21T03:10:18;9.40;;;4.03;;
17832;SDS011;9041;49.718;21.798;2023-04-21T03:12:45;9.60;;;4.27;;
17832;SDS011;9041;49.718;21.798;2023-04-21T03:15:12;9.73;;;4.30;;
17832;SDS011;9041;49.718;21.798;2023-04-21T03:17:39;11.30;;;4.27;;
17832;SDS011;9041;49.718;21.798;2023-04-21T03:20:06;8.23;;;4.27;;
17832;SDS011;9041;49.718;21.798;2023-04-21T03:22:35;11.10;;;4.50;;
17832;SDS011;9041;49.718;21.798;2023-04-21T03:25:02;11.00;;;3.93;;
17832;SDS011;9041;49.718;21.798;2023-04-21T03:27:30;12.20;;;4.67;;
17832;SDS011;9041;49.718;21.798;2023-04-21T03:29:57;9.60;;;4.50;;
17832;SDS011;9041;49.718;21.798;2023-04-21T03:32:24;6.23;;;3.63;;
17832;SDS011;9041;49.718;21.798;2023-04-21T03:34:51;19.30;;;4.53;;
17832;SDS011;9041;49.718;21.798;2023-04-21T03:37:18;10.97;;;4.53;;
17832;SDS011;9041;49.718;21.798;2023-04-21T03:39:46;10.00;;;4.10;;
17832;SDS011;9041;49.718;21.798;2023-04-21T03:42:13;10.70;;;4.37;;
17832;SDS011;9041;49.718;21.798;2023-04-21T03:44:40;14.90;;;4.67;;
17832;SDS011;9041;49.718;21.798;2023-04-21T03:47:06;11.40;;;4.60;;
17832;SDS011;9041;49.718;21.798;2023-04-21T03:49:33;17.00;;;4.80;;
17832;SDS011;9041;49.718;21.798;2023-04-21T03:52:00;11.47;;;5.07;;
17832;SDS011;9041;49.718;21.798;2023-04-21T03:54:27;10.00;;;4.90;;
17832;SDS011;9041;49.718;21.798;2023-04-21T03:56:56;15.23;;;4.67;;
17832;SDS011;9041;49.718;21.798;2023-04-21T03:59:23;10.83;;;4.90;;
17832;SDS011;9041;49.718;21.798;2023-04-21T04:01:50;11.97;;;4.70;;
17832;SDS011;9041;49.718;21.798;2023-04-21T04:04:17;13.57;;;5.57;;
17832;SDS011;9041;49.718;21.798;2023-04-21T04:06:43;15.83;;;5.43;;
17832;SDS011;9041;49.718;21.798;2023-04-21T04:09:11;13.73;;;5.77;;
17832;SDS011;9041;49.718;21.798;2023-04-21T04:11:38;17.63;;;5.50;;
17832;SDS011;9041;49.718;21.798;2023-04-21T04:14:06;15.90;;;6.47;;
17832;SDS011;9041;49.718;21.798;2023-04-21T04:16:32;20.47;;;8.03;;
17832;SDS011;9041;49.718;21.798;2023-04-21T04:19:00;15.10;;;6.50;;
17832;SDS011;9041;49.718;21.798;2023-04-21T04:21:27;20.07;;;7.30;;
17832;SDS011;9041;49.718;21.798;2023-04-21T04:23:56;26.10;;;11.23;;
17832;SDS011;9041;49.718;21.798;2023-04-21T04:26:24;31.93;;;10.43;;
17832;SDS011;9041;49.718;21.798;2023-04-21T04:28:51;24.53;;;9.27;;
17832;SDS011;9041;49.718;21.798;2023-04-21T04:31:21;26.37;;;9.90;;
17832;SDS011;9041;49.718;21.798;2023-04-21T04:33:49;22.83;;;9.47;;
17832;SDS011;9041;49.718;21.798;2023-04-21T04:36:16;19.80;;;8.63;;
17832;SDS011;9041;49.718;21.798;2023-04-21T04:38:43;17.30;;;7.73;;
17832;SDS011;9041;49.718;21.798;2023-04-21T04:41:10;20.20;;;7.43;;
17832;SDS011;9041;49.718;21.798;2023-04-21T04:43:37;19.47;;;7.27;;
17832;SDS011;9041;49.718;21.798;2023-04-21T04:46:04;16.30;;;7.20;;
17832;SDS011;9041;49.718;21.798;2023-04-21T04:48:34;14.77;;;7.27;;
17832;SDS011;9041;49.718;21.798;2023-04-21T04:51:01;22.00;;;8.30;;
17832;SDS011;9041;49.718;21.798;2023-04-21T04:53:28;20.93;;;7.30;;
17832;SDS011;9041;49.718;21.798;2023-04-21T04:55:55;20.13;;;7.00;;
17832;SDS011;9041;49.718;21.798;2023-04-21T04:58:22;17.63;;;7.33;;
17832;SDS011;9041;49.718;21.798;2023-04-21T05:00:49;15.98;;;7.40;;
17832;SDS011;9041;49.718;21.798;2023-04-21T05:03:16;22.88;;;7.20;;
17832;SDS011;9041;49.718;21.798;2023-04-21T05:05:44;15.65;;;6.07;;
17832;SDS011;9041;49.718;21.798;2023-04-21T05:08:11;12.45;;;5.95;;
17832;SDS011;9041;49.718;21.798;2023-04-21T05:10:38;17.98;;;6.50;;
17832;SDS011;9041;49.718;21.798;2023-04-21T05:13:05;16.23;;;6.22;;
17832;SDS011;9041;49.718;21.798;2023-04-21T05:15:31;17.77;;;6.38;;
17832;SDS011;9041;49.718;21.798;2023-04-21T05:17:58;13.25;;;6.95;;
17832;SDS011;9041;49.718;21.798;2023-04-21T05:20:25;19.70;;;6.82;;
17832;SDS011;9041;49.718;21.798;2023-04-21T05:22:53;18.50;;;6.30;;
17832;SDS011;9041;49.718;21.798;2023-04-21T05:25:20;17.65;;;6.22;;
17832;SDS011;9041;49.718;21.798;2023-04-21T05:27:47;21.20;;;6.47;;
17832;SDS011;9041;49.718;21.798;2023-04-21T05:30:14;20.42;;;6.47;;
17832;SDS011;9041;49.718;21.798;2023-04-21T05:32:40;19.10;;;5.50;;
17832;SDS011;9041;49.718;21.798;2023-04-21T05:35:07;13.85;;;6.38;;
17832;SDS011;9041;49.718;21.798;2023-04-21T05:37:34;17.45;;;6.05;;
17832;SDS011;9041;49.718;21.798;2023-04-21T05:40:03;17.20;;;6.60;;
17832;SDS011;9041;49.718;21.798;2023-04-21T05:42:30;17.27;;;6.22;;
17832;SDS011;9041;49.718;21.798;2023-04-21T05:44:57;18.45;;;5.95;;
17832;SDS011;9041;49.718;21.798;2023-04-21T05:47:24;16.50;;;6.05;;
17832;SDS011;9041;49.718;21.798;2023-04-21T05:49:51;15.70;;;5.65;;
17832;SDS011;9041;49.718;21.798;2023-04-21T05:52:18;18.23;;;6.57;;
17832;SDS011;9041;49.718;21.798;2023-04-21T05:54:45;15.25;;;5.70;;
17832;SDS011;9041;49.718;21.798;2023-04-21T05:57:14;17.48;;;6.03;;
17832;SDS011;9041;49.718;21.798;2023-04-21T05:59:41;13.27;;;6.55;;
17832;SDS011;9041;49.718;21.798;2023-04-21T06:02:08;16.52;;;5.78;;
17832;SDS011;9041;49.718;21.798;2023-04-21T06:04:35;15.57;;;5.85;;
17832;SDS011;9041;49.718;21.798;2023-04-21T06:07:05;13.50;;;5.82;;
17832;SDS011;9041;49.718;21.798;2023-04-21T06:09:32;16.65;;;6.50;;
17832;SDS011;9041;49.718;21.798;2023-04-21T06:11:59;16.98;;;7.47;;
17832;SDS011;9041;49.718;21.798;2023-04-21T06:14:28;19.67;;;7.78;;
17832;SDS011;9041;49.718;21.798;2023-04-21T06:16:57;29.13;;;8.35;;
17832;SDS011;9041;49.718;21.798;2023-04-21T06:19:23;18.02;;;6.70;;
17832;SDS011;9041;49.718;21.798;2023-04-21T06:21:50;18.10;;;5.95;;
17832;SDS011;9041;49.718;21.798;2023-04-21T06:24:17;16.17;;;6.00;;
17832;SDS011;9041;49.718;21.798;2023-04-21T06:26:49;16.15;;;6.40;;
17832;SDS011;9041;49.718;21.798;2023-04-21T06:29:16;15.43;;;6.03;;
17832;SDS011;9041;49.718;21.798;2023-04-21T06:31:44;12.95;;;5.88;;
17832;SDS011;9041;49.718;21.798;2023-04-21T06:34:12;16.98;;;6.20;;
17832;SDS011;9041;49.718;21.798;2023-04-21T06:36:38;17.88;;;6.47;;
17832;SDS011;9041;49.718;21.798;2023-04-21T06:39:05;18.55;;;6.32;;
17832;SDS011;9041;49.718;21.798;2023-04-21T06:41:32;20.95;;;6.57;;
17832;SDS011;9041;49.718;21.798;2023-04-21T06:43:59;17.27;;;6.20;;
17832;SDS011;9041;49.718;21.798;2023-04-21T06:46:25;15.23;;;5.80;;
17832;SDS011;9041;49.718;21.798;2023-04-21T06:48:53;12.30;;;5.65;;
17832;SDS011;9041;49.718;21.798;2023-04-21T06:51:20;15.50;;;5.80;;
17832;SDS011;9041;49.718;21.798;2023-04-21T06:53:47;18.27;;;6.70;;
17832;SDS011;9041;49.718;21.798;2023-04-21T06:56:14;13.25;;;5.30;;
17832;SDS011;9041;49.718;21.798;2023-04-21T06:58:40;13.85;;;6.15;;
17832;SDS011;9041;49.718;21.798;2023-04-21T07:01:08;16.95;;;6.57;;
17832;SDS011;9041;49.718;21.798;2023-04-21T07:03:34;16.75;;;5.75;;
17832;SDS011;9041;49.718;21.798;2023-04-21T07:06:03;17.75;;;5.65;;
17832;SDS011;9041;49.718;21.798;2023-04-21T07:08:30;12.57;;;5.20;;
17832;SDS011;9041;49.718;21.798;2023-04-21T07:10:57;12.93;;;5.35;;
17832;SDS011;9041;49.718;21.798;2023-04-21T07:13:23;15.85;;;5.32;;
17832;SDS011;9041;49.718;21.798;2023-04-21T07:15:50;13.15;;;5.28;;
17832;SDS011;9041;49.718;21.798;2023-04-21T07:18:18;16.33;;;5.85;;
17832;SDS011;9041;49.718;21.798;2023-04-21T07:20:44;14.70;;;5.38;;
17832;SDS011;9041;49.718;21.798;2023-04-21T07:23:13;12.00;;;5.32;;
17832;SDS011;9041;49.718;21.798;2023-04-21T07:25:39;11.73;;;5.32;;
17832;SDS011;9041;49.718;21.798;2023-04-21T07:28:06;17.60;;;5.38;;
17832;SDS011;9041;49.718;21.798;2023-04-21T07:30:33;14.60;;;5.03;;
17832;SDS011;9041;49.718;21.798;2023-04-21T07:33:00;11.15;;;5.60;;
17832;SDS011;9041;49.718;21.798;2023-04-21T07:35:29;12.82;;;5.65;;
17832;SDS011;9041;49.718;21.798;2023-04-21T07:37:55;12.32;;;5.20;;
17832;SDS011;9041;49.718;21.798;2023-04-21T07:40:24;14.15;;;5.28;;
17832;SDS011;9041;49.718;21.798;2023-04-21T07:42:51;15.32;;;5.60;;
17832;SDS011;9041;49.718;21.798;2023-04-21T07:45:18;11.68;;;5.45;;
17832;SDS011;9041;49.718;21.798;2023-04-21T07:47:45;15.68;;;5.28;;
17832;SDS011;9041;49.718;21.798;2023-04-21T07:50:11;10.25;;;5.25;;
17832;SDS011;9041;49.718;21.798;2023-04-21T07:52:38;13.10;;;5.35;;
17832;SDS011;9041;49.718;21.798;2023-04-21T07:55:05;9.73;;;4.72;;
17832;SDS011;9041;49.718;21.798;2023-04-21T07:57:33;10.75;;;4.60;;
17832;SDS011;9041;49.718;21.798;2023-04-21T08:00:03;9.60;;;5.30;;
17832;SDS011;9041;49.718;21.798;2023-04-21T08:02:30;15.02;;;5.50;;
17832;SDS011;9041;49.718;21.798;2023-04-21T08:04:57;14.00;;;4.50;;
17832;SDS011;9041;49.718;21.798;2023-04-21T08:07:24;9.57;;;4.35;;
17832;SDS011;9041;49.718;21.798;2023-04-21T08:09:51;10.65;;;4.30;;
17832;SDS011;9041;49.718;21.798;2023-04-21T08:12:17;8.40;;;4.00;;
17832;SDS011;9041;49.718;21.798;2023-04-21T08:14:46;6.90;;;4.15;;
17832;SDS011;9041;49.718;21.798;2023-04-21T08:17:12;10.07;;;4.50;;
17832;SDS011;9041;49.718;21.798;2023-04-21T08:19:39;7.43;;;4.20;;
17832;SDS011;9041;49.718;21.798;2023-04-21T08:22:06;9.82;;;3.88;;
17832;SDS011;9041;49.718;21.798;2023-04-21T08:24:33;6.38;;;3.92;;
17832;SDS011;9041;49.718;21.798;2023-04-21T08:27:00;9.05;;;4.00;;
17832;SDS011;9041;49.718;21.798;2023-04-21T08:29:27;8.25;;;4.45;;
17832;SDS011;9041;49.718;21.798;2023-04-21T08:31:55;6.55;;;3.97;;
17832;SDS011;9041;49.718;21.798;2023-04-21T08:34:22;6.75;;;4.05;;
17832;SDS011;9041;49.718;21.798;2023-04-21T08:36:49;7.32;;;3.63;;
17832;SDS011;9041;49.718;21.798;2023-04-21T08:39:16;7.93;;;4.10;;
17832;SDS011;9041;49.718;21.798;2023-04-21T08:41:43;6.13;;;3.65;;
17832;SDS011;9041;49.718;21.798;2023-04-21T08:44:09;8.50;;;3.90;;
17832;SDS011;9041;49.718;21.798;2023-04-21T08:46:36;6.13;;;3.83;;
17832;SDS011;9041;49.718;21.798;2023-04-21T08:49:06;6.63;;;4.07;;
17832;SDS011;9041;49.718;21.798;2023-04-21T08:51:34;8.98;;;3.85;;
17832;SDS011;9041;49.718;21.798;2023-04-21T08:54:01;9.63;;;3.78;;
17832;SDS011;9041;49.718;21.798;2023-04-21T08:56:29;7.10;;;3.17;;
17832;SDS011;9041;49.718;21.798;2023-04-21T08:58:55;5.70;;;3.17;;
17832;SDS011;9041;49.718;21.798;2023-04-21T09:01:22;5.78;;;3.47;;
17832;SDS011;9041;49.718;21.798;2023-04-21T09:03:49;5.20;;;3.33;;
17832;SDS011;9041;49.718;21.798;2023-04-21T09:06:18;5.47;;;3.05;;
17832;SDS011;9041;49.718;21.798;2023-04-21T09:08:51;6.05;;;3.33;;
17832;SDS011;9041;49.718;21.798;2023-04-21T09:11:19;7.95;;;3.53;;
17832;SDS011;9041;49.718;21.798;2023-04-21T09:13:47;6.50;;;3.42;;
17832;SDS011;9041;49.718;21.798;2023-04-21T09:16:14;8.63;;;3.40;;
17832;SDS011;9041;49.718;21.798;2023-04-21T09:18:42;6.15;;;3.05;;
17832;SDS011;9041;49.718;21.798;2023-04-21T09:21:10;5.78;;;3.30;;
17832;SDS011;9041;49.718;21.798;2023-04-21T09:23:43;6.60;;;3.35;;
17832;SDS011;9041;49.718;21.798;2023-04-21T09:26:10;6.88;;;3.50;;
17832;SDS011;9041;49.718;21.798;2023-04-21T09:28:40;16.65;;;3.80;;
17832;SDS011;9041;49.718;21.798;2023-04-21T09:31:14;6.22;;;2.90;;
17832;SDS011;9041;49.718;21.798;2023-04-21T09:33:44;5.90;;;3.30;;
17832;SDS011;9041;49.718;21.798;2023-04-21T09:36:18;8.68;;;3.67;;
17832;SDS011;9041;49.718;21.798;2023-04-21T09:38:56;6.40;;;3.22;;
17832;SDS011;9041;49.718;21.798;2023-04-21T09:41:24;8.05;;;3.80;;
17832;SDS011;9041;49.718;21.798;2023-04-21T09:43:51;7.00;;;3.40;;
17832;SDS011;9041;49.718;21.798;2023-04-21T09:46:18;11.90;;;3.22;;
17832;SDS011;9041;49.718;21.798;2023-04-21T09:48:45;5.40;;;3.30;;
17832;SDS011;9041;49.718;21.798;2023-04-21T09:51:14;6.68;;;3.22;;
17832;SDS011;9041;49.718;21.798;2023-04-21T09:53:42;5.28;;;3.30;;
17832;SDS011;9041;49.718;21.798;2023-04-21T09:56:12;8.68;;;3.72;;
17832;SDS011;9041;49.718;21.798;2023-04-21T09:58:39;5.80;;;3.58;;
17832;SDS011;9041;49.718;21.798;2023-04-21T10:01:09;6.72;;;3.92;;
17832;SDS011;9041;49.718;21.798;2023-04-21T10:03:36;12.93;;;4.22;;
17832;SDS011;9041;49.718;21.798;2023-04-21T10:06:04;7.38;;;3.75;;
17832;SDS011;9041;49.718;21.798;2023-04-21T10:08:32;7.57;;;4.30;;
17832;SDS011;9041;49.718;21.798;2023-04-21T10:11:00;11.55;;;4.32;;
17832;SDS011;9041;49.718;21.798;2023-04-21T10:13:29;8.23;;;4.38;;
17832;SDS011;9041;49.718;21.798;2023-04-21T10:16:00;7.07;;;4.03;;
17832;SDS011;9041;49.718;21.798;2023-04-21T10:18:27;8.07;;;4.20;;
17832;SDS011;9041;49.718;21.798;2023-04-21T10:20:55;10.20;;;4.15;;
17832;SDS011;9041;49.718;21.798;2023-04-21T10:23:24;7.95;;;4.80;;
17832;SDS011;9041;49.718;21.798;2023-04-21T10:26:00;8.65;;;4.80;;
17832;SDS011;9041;49.718;21.798;2023-04-21T10:28:51;7.97;;;4.32;;
17832;SDS011;9041;49.718;21.798;2023-04-21T10:31:22;8.68;;;3.78;;
17832;SDS011;9041;49.718;21.798;2023-04-21T10:39:44;5.65;;;3.63;;
17832;SDS011;9041;49.718;21.798;2023-04-21T10:45:11;9.55;;;3.78;;
17832;SDS011;9041;49.718;21.798;2023-04-21T10:47:39;5.10;;;3.38;;
17832;SDS011;9041;49.718;21.798;2023-04-21T10:50:15;6.05;;;3.45;;
17832;SDS011;9041;49.718;21.798;2023-04-21T10:52:45;7.40;;;3.78;;
17832;SDS011;9041;49.718;21.798;2023-04-21T10:55:14;6.82;;;3.53;;
17832;SDS011;9041;49.718;21.798;2023-04-21T10:57:42;3.88;;;2.75;;
17832;SDS011;9041;49.718;21.798;2023-04-21T11:00:13;5.43;;;3.33;;
17832;SDS011;9041;49.718;21.798;2023-04-21T11:02:41;33.63;;;4.70;;
17832;SDS011;9041;49.718;21.798;2023-04-21T11:05:08;50.90;;;4.20;;
17832;SDS011;9041;49.718;21.798;2023-04-21T11:07:35;14.30;;;3.35;;
17832;SDS011;9041;49.718;21.798;2023-04-21T11:10:03;7.38;;;3.05;;
17832;SDS011;9041;49.718;21.798;2023-04-21T11:12:33;8.95;;;2.95;;
17832;SDS011;9041;49.718;21.798;2023-04-21T11:15:02;4.95;;;3.30;;
17832;SDS011;9041;49.718;21.798;2023-04-21T11:17:32;7.47;;;3.25;;
17832;SDS011;9041;49.718;21.798;2023-04-21T11:20:00;5.38;;;3.25;;
17832;SDS011;9041;49.718;21.798;2023-04-21T11:22:28;5.78;;;2.97;;
17832;SDS011;9041;49.718;21.798;2023-04-21T11:24:58;7.78;;;3.20;;
17832;SDS011;9041;49.718;21.798;2023-04-21T11:27:26;5.93;;;3.20;;
17832;SDS011;9041;49.718;21.798;2023-04-21T11:29:53;7.93;;;3.30;;
17832;SDS011;9041;49.718;21.798;2023-04-21T11:32:21;14.90;;;6.85;;
17832;SDS011;9041;49.718;21.798;2023-04-21T11:34:49;5.28;;;3.22;;
17832;SDS011;9041;49.718;21.798;2023-04-21T11:37:20;8.48;;;3.20;;
17832;SDS011;9041;49.718;21.798;2023-04-21T11:39:49;7.50;;;3.30;;
17832;SDS011;9041;49.718;21.798;2023-04-21T11:42:21;7.80;;;3.35;;
17832;SDS011;9041;49.718;21.798;2023-04-21T11:44:48;5.97;;;3.10;;
17832;SDS011;9041;49.718;21.798;2023-04-21T11:47:15;8.18;;;2.95;;
17832;SDS011;9041;49.718;21.798;2023-04-21T11:49:43;4.47;;;2.80;;
17832;SDS011;9041;49.718;21.798;2023-04-21T11:52:19;5.60;;;3.15;;
17832;SDS011;9041;49.718;21.798;2023-04-21T11:54:53;4.78;;;2.92;;
17832;SDS011;9041;49.718;21.798;2023-04-21T11:57:22;5.20;;;2.78;;
17832;SDS011;9041;49.718;21.798;2023-04-21T11:59:50;5.88;;;2.58;;
17832;SDS011;9041;49.718;21.798;2023-04-21T12:02:20;6.90;;;2.78;;
17832;SDS011;9041;49.718;21.798;2023-04-21T12:04:58;5.32;;;2.42;;
17832;SDS011;9041;49.718;21.798;2023-04-21T12:07:27;3.90;;;2.47;;
17832;SDS011;9041;49.718;21.798;2023-04-21T12:09:55;6.40;;;2.58;;
17832;SDS011;9041;49.718;21.798;2023-04-21T12:12:22;4.75;;;2.47;;
17832;SDS011;9041;49.718;21.798;2023-04-21T12:14:50;6.65;;;2.50;;
17832;SDS011;9041;49.718;21.798;2023-04-21T12:17:17;5.05;;;2.78;;
17832;SDS011;9041;49.718;21.798;2023-04-21T12:19:44;7.80;;;2.80;;
17832;SDS011;9041;49.718;21.798;2023-04-21T12:22:12;4.97;;;2.40;;
17832;SDS011;9041;49.718;21.798;2023-04-21T12:24:41;5.30;;;2.00;;
17832;SDS011;9041;49.718;21.798;2023-04-21T12:27:09;4.95;;;2.47;;
17832;SDS011;9041;49.718;21.798;2023-04-21T12:29:36;4.35;;;2.40;;
17832;SDS011;9041;49.718;21.798;2023-04-21T12:32:03;5.82;;;2.30;;
17832;SDS011;9041;49.718;21.798;2023-04-21T12:34:30;3.80;;;2.40;;
17832;SDS011;9041;49.718;21.798;2023-04-21T12:36:57;15.60;;;2.70;;
17832;SDS011;9041;49.718;21.798;2023-04-21T12:39:24;8.95;;;2.30;;
17832;SDS011;9041;49.718;21.798;2023-04-21T12:41:52;7.78;;;2.65;;
17832;SDS011;9041;49.718;21.798;2023-04-21T12:44:19;16.27;;;2.80;;
17832;SDS011;9041;49.718;21.798;2023-04-21T12:46:46;3.97;;;1.80;;
17832;SDS011;9041;49.718;21.798;2023-04-21T12:49:14;3.90;;;2.50;;
17832;SDS011;9041;49.718;21.798;2023-04-21T12:51:41;98.13;;;5.35;;
17832;SDS011;9041;49.718;21.798;2023-04-21T12:54:09;6.18;;;2.10;;
17832;SDS011;9041;49.718;21.798;2023-04-21T12:56:36;4.35;;;2.13;;
17832;SDS011;9041;49.718;21.798;2023-04-21T12:59:05;6.22;;;2.30;;
17832;SDS011;9041;49.718;21.798;2023-04-21T13:01:33;6.03;;;2.60;;
17832;SDS011;9041;49.718;21.798;2023-04-21T13:04:01;4.53;;;2.38;;
17832;SDS011;9041;49.718;21.798;2023-04-21T13:06:28;5.95;;;2.38;;
17832;SDS011;9041;49.718;21.798;2023-04-21T13:08:56;6.95;;;2.30;;
17832;SDS011;9041;49.718;21.798;2023-04-21T13:11:23;19.67;;;3.00;;
17832;SDS011;9041;49.718;21.798;2023-04-21T13:13:50;4.15;;;2.38;;
17832;SDS011;9041;49.718;21.798;2023-04-21T13:16:18;3.95;;;1.95;;
17832;SDS011;9041;49.718;21.798;2023-04-21T13:18:45;3.53;;;2.15;;
17832;SDS011;9041;49.718;21.798;2023-04-21T13:21:12;4.50;;;2.10;;
17832;SDS011;9041;49.718;21.798;2023-04-21T13:23:39;5.30;;;2.40;;
17832;SDS011;9041;49.718;21.798;2023-04-21T13:26:06;4.60;;;2.28;;
17832;SDS011;9041;49.718;21.798;2023-04-21T13:28:33;3.40;;;2.40;;
17832;SDS011;9041;49.718;21.798;2023-04-21T13:31:00;6.22;;;2.40;;
17832;SDS011;9041;49.718;21.798;2023-04-21T13:33:28;5.97;;;2.70;;
17832;SDS011;9041;49.718;21.798;2023-04-21T13:35:58;6.18;;;2.60;;
17832;SDS011;9041;49.718;21.798;2023-04-21T13:38:25;5.03;;;2.63;;
17832;SDS011;9041;49.718;21.798;2023-04-21T13:40:52;6.07;;;2.42;;
17832;SDS011;9041;49.718;21.798;2023-04-21T13:43:19;6.60;;;2.20;;
17832;SDS011;9041;49.718;21.798;2023-04-21T13:45:46;4.18;;;2.42;;
17832;SDS011;9041;49.718;21.798;2023-04-21T13:48:16;5.38;;;2.65;;
17832;SDS011;9041;49.718;21.798;2023-04-21T13:50:44;4.10;;;2.47;;
17832;SDS011;9041;49.718;21.798;2023-04-21T13:53:11;6.72;;;2.80;;
17832;SDS011;9041;49.718;21.798;2023-04-21T13:55:40;6.78;;;2.47;;
17832;SDS011;9041;49.718;21.798;2023-04-21T13:58:08;3.90;;;2.38;;
17832;SDS011;9041;49.718;21.798;2023-04-21T14:00:35;5.80;;;2.60;;
17832;SDS011;9041;49.718;21.798;2023-04-21T14:03:02;6.30;;;2.50;;
17832;SDS011;9041;49.718;21.798;2023-04-21T14:05:29;3.83;;;2.15;;
17832;SDS011;9041;49.718;21.798;2023-04-21T14:07:58;5.55;;;2.47;;
17832;SDS011;9041;49.718;21.798;2023-04-21T14:10:25;6.43;;;2.63;;
17832;SDS011;9041;49.718;21.798;2023-04-21T14:12:51;5.80;;;2.50;;
17832;SDS011;9041;49.718;21.798;2023-04-21T14:15:18;9.00;;;2.83;;
17832;SDS011;9041;49.718;21.798;2023-04-21T14:17:45;7.38;;;2.50;;
17832;SDS011;9041;49.718;21.798;2023-04-21T14:20:12;8.88;;;2.97;;
17832;SDS011;9041;49.718;21.798;2023-04-21T14:22:39;5.90;;;2.58;;
17832;SDS011;9041;49.718;21.798;2023-04-21T14:25:08;4.45;;;2.45;;
17832;SDS011;9041;49.718;21.798;2023-04-21T14:27:35;6.82;;;2.67;;
17832;SDS011;9041;49.718;21.798;2023-04-21T14:30:02;4.82;;;2.95;;
17832;SDS011;9041;49.718;21.798;2023-04-21T14:32:29;4.18;;;2.53;;
17832;SDS011;9041;49.718;21.798;2023-04-21T14:34:56;5.53;;;2.85;;
17832;SDS011;9041;49.718;21.798;2023-04-21T14:37:23;4.75;;;2.40;;
17832;SDS011;9041;49.718;21.798;2023-04-21T14:39:50;6.53;;;2.70;;
17832;SDS011;9041;49.718;21.798;2023-04-21T14:42:19;6.22;;;2.72;;
17832;SDS011;9041;49.718;21.798;2023-04-21T14:44:45;12.35;;;3.00;;
17832;SDS011;9041;49.718;21.798;2023-04-21T14:47:12;5.78;;;2.50;;
17832;SDS011;9041;49.718;21.798;2023-04-21T14:49:39;4.63;;;2.60;;
17832;SDS011;9041;49.718;21.798;2023-04-21T14:52:06;6.53;;;2.60;;